Time;durP1;ratioP1;P1;durP2;ratioP2;P2;SDS_P1;SDS_P2;PMS_P1;PMS_P2;Temp;Humidity;BMP_temperature;BMP_pressure;BME280_temperature;BME280_humidity;BME280_pressure;Samples;Min_cycle;Max_cycle;Signal;HPM_P1;HPM_P2
2021/11/04 00:02:22;;;;;;;22.35;15.93;;;;;;;5.34;100.00;99462.72;5016264;28;20074;-55
2021/11/04 00:04:48;;;;;;;23.65;14.73;;;;;;;5.34;100.00;99450.03;5017239;28;20037;-55
2021/11/04 00:07:13;;;;;;;17.75;13.52;;;;;;;5.52;100.00;99447.13;5015539;28;20065;-55
2021/11/04 00:09:41;;;;;;;20.58;13.82;;;;;;;5.74;100.00;99440.91;5018793;28;20474;-54
2021/11/04 00:12:08;;;;;;;22.02;14.50;;;;;;;5.72;100.00;99434.91;5015945;28;20051;-51
2021/11/04 00:14:33;;;;;;;22.33;15.52;;;;;;;5.36;100.00;99438.22;5013186;28;20080;-54
2021/11/04 00:16:59;;;;;;;20.95;14.50;;;;;;;5.62;100.00;99434.69;5017334;28;20502;-55
2021/11/04 00:19:25;;;;;;;22.80;15.07;;;;;;;5.54;100.00;99432.75;5014090;28;20068;-56
2021/11/04 00:21:50;;;;;;;21.23;15.30;;;;;;;5.36;100.00;99430.59;5017325;28;20041;-55
2021/11/04 00:24:16;;;;;;;19.48;14.88;;;;;;;5.35;100.00;99426.34;5015360;28;20486;-57
2021/11/04 00:26:42;;;;;;;21.15;15.57;;;;;;;5.49;100.00;99419.09;5014810;28;20498;-55
2021/11/04 00:29:07;;;;;;;27.75;17.23;;;;;;;5.32;100.00;99411.94;5014745;28;20968;-53
2021/11/04 00:31:34;;;;;;;22.58;15.45;;;;;;;5.63;100.00;99411.00;5015849;28;20056;-56
2021/11/04 00:33:59;;;;;;;22.70;16.20;;;;;;;5.33;100.00;99417.84;5013626;28;20512;-56
2021/11/04 00:36:25;;;;;;;24.17;16.58;;;;;;;5.25;100.00;99415.09;5016698;28;20061;-57
2021/11/04 00:38:50;;;;;;;29.52;18.85;;;;;;;5.10;100.00;99410.50;5016731;28;20038;-54
2021/11/04 00:41:17;;;;;;;24.40;16.20;;;;;;;5.21;100.00;99404.84;5013773;28;20046;-54
2021/11/04 00:43:44;;;;;;;25.38;16.90;;;;;;;5.56;100.00;99395.59;5015446;28;20076;-55
2021/11/04 00:46:10;;;;;;;29.98;18.08;;;;;;;5.47;100.00;99393.69;5015140;28;20033;-55
2021/11/04 00:48:36;;;;;;;27.13;18.08;;;;;;;5.19;100.00;99381.13;5014448;28;20096;-55
2021/11/04 00:51:03;;;;;;;30.15;18.98;;;;;;;5.34;100.00;99384.91;5015901;28;20041;-55
2021/11/04 00:53:29;;;;;;;30.52;19.75;;;;;;;5.04;100.00;99376.50;5013103;28;20029;-55
2021/11/04 00:55:56;;;;;;;31.55;19.55;;;;;;;5.05;100.00;99370.59;5016781;28;20490;-56
2021/11/04 00:58:22;;;;;;;25.85;18.33;;;;;;;5.19;100.00;99374.34;5016909;28;20150;-54
2021/11/04 01:00:48;;;;;;;32.90;18.65;;;;;;;5.41;100.00;99372.34;5015477;28;20037;-52
2021/11/04 01:03:14;;;;;;;29.40;19.10;;;;;;;5.42;100.00;99376.63;5014305;28;20034;-54
2021/11/04 01:05:40;;;;;;;29.58;18.92;;;;;;;5.17;100.00;99370.91;5014616;28;20033;-55
2021/11/04 01:08:05;;;;;;;26.85;19.23;;;;;;;5.20;100.00;99372.69;5015413;28;20494;-56
2021/11/04 01:10:31;;;;;;;25.95;18.17;;;;;;;5.18;100.00;99369.25;5013114;28;20037;-53
2021/11/04 01:12:57;;;;;;;29.33;19.75;;;;;;;5.13;100.00;99386.00;5016542;28;20037;-57
2021/11/04 01:15:22;;;;;;;28.63;19.30;;;;;;;5.14;100.00;99401.28;5012454;28;20033;-56
2021/11/04 01:17:50;;;;;;;31.50;20.95;;;;;;;4.95;100.00;99399.94;5015932;28;20041;-50
2021/11/04 01:20:16;;;;;;;31.15;20.48;;;;;;;4.90;100.00;99387.94;5013646;28;20038;-52
2021/11/04 01:22:42;;;;;;;34.05;21.50;;;;;;;5.01;100.00;99384.03;5013293;28;20556;-53
2021/11/04 01:25:08;;;;;;;28.83;20.40;;;;;;;5.13;100.00;99378.41;5019051;28;20395;-51
2021/11/04 01:27:33;;;;;;;27.95;19.58;;;;;;;5.21;100.00;99380.31;5017725;28;20056;-54
2021/11/04 01:29:59;;;;;;;34.83;21.23;;;;;;;5.02;100.00;99384.06;5019412;28;20045;-54
2021/11/04 01:32:25;;;;;;;29.95;20.83;;;;;;;5.17;100.00;99380.19;5016852;28;20556;-53
2021/11/04 01:34:51;;;;;;;29.63;20.17;;;;;;;5.42;100.00;99374.09;5020028;28;20186;-53
2021/11/04 01:37:17;;;;;;;30.50;19.45;;;;;;;5.63;100.00;99366.97;5019560;28;20029;-52
2021/11/04 01:39:43;;;;;;;28.80;19.42;;;;;;;5.43;100.00;99363.97;5017970;28;20084;-56
2021/11/04 01:42:09;;;;;;;31.15;19.80;;;;;;;5.66;100.00;99364.53;5018912;28;20033;-55
2021/11/04 01:44:34;;;;;;;28.15;19.55;;;;;;;5.56;100.00;99360.91;5016039;28;20538;-56
2021/11/04 01:47:00;;;;;;;31.48;19.17;;;;;;;5.41;100.00;99370.69;5018698;28;20176;-53
2021/11/04 01:49:31;;;;;;;30.83;20.42;;;;;;;5.39;100.00;99358.78;5016897;28;20034;-55
2021/11/04 01:51:56;;;;;;;27.95;20.65;;;;;;;5.53;100.00;99348.13;5019877;28;20580;-54
2021/11/04 01:54:22;;;;;;;27.92;19.38;;;;;;;5.39;100.00;99341.84;5016370;28;20026;-52
2021/11/04 01:56:48;;;;;;;33.17;21.73;;;;;;;5.31;100.00;99344.19;5020023;28;20172;-55
2021/11/04 01:59:13;;;;;;;29.08;20.75;;;;;;;5.74;100.00;99337.63;5018801;28;20098;-54
2021/11/04 02:01:39;;;;;;;29.60;20.65;;;;;;;5.74;100.00;99345.25;5017809;28;20072;-54
2021/11/04 02:04:10;;;;;;;29.80;19.55;;;;;;;5.75;100.00;99341.88;5017083;28;20379;-55
2021/11/04 02:06:51;;;;;;;28.92;19.25;;;;;;;5.85;100.00;99340.41;5019073;28;20456;-56
2021/11/04 02:09:36;;;;;;;29.73;20.52;;;;;;;5.85;100.00;99330.25;5018484;28;20466;-55
2021/11/04 02:12:07;;;;;;;28.95;20.48;;;;;;;5.78;100.00;99328.41;5019548;28;20040;-55
2021/11/04 02:14:38;;;;;;;31.67;20.88;;;;;;;6.30;100.00;99320.25;5017850;28;20029;-55
2021/11/04 02:17:05;;;;;;;30.35;20.88;;;;;;;6.02;100.00;99310.34;5019661;28;20371;-57
2021/11/04 02:19:36;;;;;;;31.30;20.10;;;;;;;6.04;100.00;99303.59;5019336;28;20041;-52
2021/11/04 02:22:05;;;;;;;30.33;20.85;;;;;;;6.13;100.00;99289.41;5017065;28;20397;-55
2021/11/04 02:24:49;;;;;;;31.42;21.92;;;;;;;6.06;100.00;99290.13;5019423;28;20025;-53
2021/11/04 02:27:17;;;;;;;34.53;22.77;;;;;;;5.74;100.00;99285.97;5016642;28;20034;-51
2021/11/04 02:29:44;;;;;;;35.17;23.05;;;;;;;6.07;100.00;99296.91;5017390;28;20061;-55
2021/11/04 02:32:11;;;;;;;35.53;23.58;;;;;;;5.90;100.00;99292.25;5018258;28;20038;-55
2021/11/04 02:34:39;;;;;;;33.25;22.52;;;;;;;6.07;100.00;99296.91;5015504;28;20427;-56
2021/11/04 02:37:07;;;;;;;32.20;22.67;;;;;;;6.32;100.00;99297.41;5014717;28;20065;-54
2021/11/04 02:39:33;;;;;;;35.88;23.60;;;;;;;6.15;100.00;99281.81;5018174;28;20510;-55
2021/11/04 02:41:59;;;;;;;33.50;22.98;;;;;;;6.57;100.00;99274.19;5016458;28;20044;-55
2021/11/04 02:44:26;;;;;;;36.13;24.40;;;;;;;6.16;100.00;99262.34;5016821;28;20033;-57
2021/11/04 02:47:00;;;;;;;33.63;22.70;;;;;;;6.52;100.00;99264.75;5017646;28;20037;-56
2021/11/04 02:49:27;;;;;;;36.35;23.92;;;;;;;6.01;100.00;99267.94;5018726;28;20045;-56
2021/11/04 02:51:54;;;;;;;37.20;23.02;;;;;;;5.99;100.00;99262.84;5016227;28;20065;-57
2021/11/04 02:54:20;;;;;;;35.40;24.10;;;;;;;6.01;100.00;99270.50;5017125;28;20033;-53
2021/11/04 02:56:49;;;;;;;35.25;25.15;;;;;;;5.62;100.00;99279.78;5016491;28;20642;-53
2021/11/04 02:59:17;;;;;;;40.70;26.65;;;;;;;5.74;100.00;99281.75;5019158;28;20025;-56
2021/11/04 03:01:45;;;;;;;37.05;26.40;;;;;;;5.80;100.00;99292.03;5015205;28;20091;-55
2021/11/04 03:04:14;;;;;;;38.80;25.98;;;;;;;5.88;100.00;99295.63;5015058;28;20050;-53
2021/11/04 03:06:40;;;;;;;39.97;26.65;;;;;;;5.69;100.00;99298.56;5017165;28;20160;-57
2021/11/04 03:09:06;;;;;;;40.55;27.05;;;;;;;5.68;100.00;99299.38;5014521;28;20117;-54
2021/11/04 03:11:31;;;;;;;37.85;27.25;;;;;;;6.05;100.00;99296.00;5016896;28;20034;-53
2021/11/04 03:13:57;;;;;;;40.13;27.02;;;;;;;6.19;100.00;99295.44;5015635;28;20041;-55
2021/11/04 03:16:24;;;;;;;40.80;27.13;;;;;;;5.87;100.00;99300.69;5017689;28;20029;-57
2021/11/04 03:18:50;;;;;;;42.75;27.40;;;;;;;5.85;100.00;99295.53;5014659;28;20411;-56
2021/11/04 03:21:17;;;;;;;42.42;27.60;;;;;;;5.76;100.00;99300.41;5018562;28;20121;-55
2021/11/04 03:23:42;;;;;;;42.35;27.52;;;;;;;6.11;100.00;99297.81;5017420;28;20041;-56
2021/11/04 03:26:10;;;;;;;37.67;26.77;;;;;;;6.15;100.00;99297.06;5015491;28;20041;-53
2021/11/04 03:28:37;;;;;;;39.05;26.83;;;;;;;6.19;100.00;99287.81;5016064;28;20129;-54
2021/11/04 03:31:03;;;;;;;40.05;26.33;;;;;;;5.77;100.00;99288.56;5014149;28;20038;-56
2021/11/04 03:33:30;;;;;;;42.70;28.88;;;;;;;6.08;100.00;99296.06;5017201;28;20029;-55
2021/11/04 03:35:58;;;;;;;40.78;27.58;;;;;;;6.27;100.00;99278.66;5014284;28;20084;-52
2021/11/04 03:38:25;;;;;;;41.90;28.83;;;;;;;6.19;100.00;99283.56;5017265;28;20728;-58
2021/11/04 03:40:52;;;;;;;39.60;27.20;;;;;;;6.35;100.00;99274.59;5019764;28;20037;-54
2021/11/04 03:43:18;;;;;;;40.55;28.20;;;;;;;6.27;100.00;99263.41;5016781;28;20037;-55
2021/11/04 03:45:45;;;;;;;43.22;28.55;;;;;;;6.14;100.00;99262.28;5013696;28;20045;-57
2021/11/04 03:48:12;;;;;;;48.28;30.88;;;;;;;5.87;100.00;99252.41;5015262;28;20052;-55
2021/11/04 03:50:38;;;;;;;41.20;28.10;;;;;;;6.07;100.00;99242.69;5017564;28;20137;-54
2021/11/04 03:53:05;;;;;;;45.97;30.55;;;;;;;6.32;100.00;99251.63;5017447;28;20516;-53
2021/11/04 03:55:32;;;;;;;44.53;29.30;;;;;;;6.46;100.00;99237.50;5018493;28;20033;-52
2021/11/04 03:57:59;;;;;;;46.55;29.63;;;;;;;6.59;100.00;99233.50;5017704;28;20121;-54
2021/11/04 04:00:26;;;;;;;47.15;30.27;;;;;;;6.80;100.00;99238.97;5015484;28;20120;-54
2021/11/04 04:02:51;;;;;;;45.80;29.63;;;;;;;6.20;100.00;99233.63;5016134;28;20091;-56
2021/11/04 04:05:30;;;;;;;43.70;29.00;;;;;;;6.20;100.00;99229.41;5017140;28;20049;-52
2021/11/04 04:07:56;;;;;;;50.15;31.55;;;;;;;6.34;100.00;99222.91;5017224;28;20037;-55
2021/11/04 04:10:23;;;;;;;47.75;31.65;;;;;;;6.19;100.00;99220.03;5015339;28;20544;-56
2021/11/04 04:12:49;;;;;;;52.95;32.22;;;;;;;6.55;100.00;99208.84;5014939;28;20402;-55
2021/11/04 04:15:14;;;;;;;54.20;33.65;;;;;;;6.42;100.00;99202.69;5016541;28;20036;-56
2021/11/04 04:17:40;;;;;;;53.03;31.98;;;;;;;6.32;100.00;99203.34;5013965;28;20395;-59
2021/11/04 04:20:06;;;;;;;52.45;34.28;;;;;;;6.53;100.00;99192.72;5016787;28;20037;-55
2021/11/04 04:22:32;;;;;;;54.47;34.20;;;;;;;6.16;100.00;99188.66;5017025;28;20021;-53
2021/11/04 04:24:58;;;;;;;55.03;34.15;;;;;;;6.01;100.00;99195.16;5013024;28;20552;-56
2021/11/04 04:27:23;;;;;;;59.78;36.83;;;;;;;6.23;100.00;99203.16;5014478;28;20489;-52
2021/11/04 04:29:49;;;;;;;59.63;36.60;;;;;;;6.31;100.00;99201.63;5015579;28;20046;-56
2021/11/04 04:32:14;;;;;;;55.83;34.38;;;;;;;6.45;100.00;99205.28;5015774;28;20037;-55
2021/11/04 04:34:42;;;;;;;57.70;36.78;;;;;;;6.46;100.00;99206.13;5014307;28;20041;-55
2021/11/04 04:37:08;;;;;;;54.38;35.92;;;;;;;6.49;100.00;99203.66;5016278;28;20039;-54
2021/11/04 04:39:34;;;;;;;56.65;35.97;;;;;;;6.39;100.00;99197.56;5009533;28;20060;-55
2021/11/04 04:42:01;;;;;;;59.65;36.13;;;;;;;6.81;100.00;99188.97;5016483;28;20053;-55
2021/11/04 04:44:29;;;;;;;67.50;39.67;;;;;;;6.43;100.00;99189.16;5013752;28;20034;-57
2021/11/04 04:46:55;;;;;;;58.38;38.13;;;;;;;6.09;100.00;99191.06;5016978;28;20574;-55
2021/11/04 04:49:21;;;;;;;61.67;37.38;;;;;;;6.22;100.00;99197.22;5013150;28;20045;-54
2021/11/04 04:51:47;;;;;;;61.47;37.58;;;;;;;6.44;100.00;99200.19;5016953;28;20033;-56
2021/11/04 04:54:13;;;;;;;62.92;38.72;;;;;;;6.13;100.00;99197.91;5013957;28;20041;-52
2021/11/04 04:56:38;;;;;;;66.05;41.13;;;;;;;5.96;100.00;99191.66;5016219;28;20040;-57
2021/11/04 04:59:04;;;;;;;71.53;43.85;;;;;;;5.68;100.00;99181.72;5012762;28;20066;-55
2021/11/04 05:01:30;;;;;;;68.70;42.70;;;;;;;5.98;100.00;99184.06;5016925;28;20494;-53
2021/11/04 05:03:56;;;;;;;67.90;41.65;;;;;;;6.06;100.00;99174.91;5015051;28;20125;-55
2021/11/04 05:06:22;;;;;;;73.93;44.20;;;;;;;5.75;100.00;99170.88;5014114;28;20133;-54
2021/11/04 05:08:47;;;;;;;69.72;41.53;;;;;;;6.57;100.00;99161.44;5014666;28;20041;-56
2021/11/04 05:11:13;;;;;;;62.75;38.05;;;;;;;6.39;100.00;99161.97;5012837;28;20110;-55
2021/11/04 05:13:39;;;;;;;63.88;39.35;;;;;;;6.60;100.00;99158.91;5015294;28;20389;-57
2021/11/04 05:16:05;;;;;;;68.85;41.47;;;;;;;6.50;100.00;99159.59;5013225;28;20037;-55
2021/11/04 05:18:30;;;;;;;62.85;39.63;;;;;;;6.46;100.00;99151.06;5019720;28;20044;-55
2021/11/04 05:20:56;;;;;;;62.55;38.75;;;;;;;6.27;100.00;99147.34;5015941;28;20051;-55
2021/11/04 05:23:21;;;;;;;60.25;37.42;;;;;;;6.31;100.00;99146.56;5009363;28;20045;-56
2021/11/04 05:25:47;;;;;;;62.38;38.80;;;;;;;6.55;100.00;99135.97;5014984;28;20159;-58
2021/11/04 05:28:13;;;;;;;62.95;38.65;;;;;;;6.38;100.00;99139.94;5014515;28;20397;-54
2021/11/04 05:30:38;;;;;;;63.58;38.55;;;;;;;6.19;100.00;99145.50;5014330;28;20620;-57
2021/11/04 05:33:04;;;;;;;69.88;40.65;;;;;;;6.37;100.00;99149.22;5014872;28;20048;-57
2021/11/04 05:35:30;;;;;;;64.65;39.13;;;;;;;6.71;100.00;99142.16;5013098;28;20040;-57
2021/11/04 05:37:56;;;;;;;65.97;40.25;;;;;;;6.69;100.00;99143.81;5017249;28;20036;-60
2021/11/04 05:40:22;;;;;;;74.55;41.50;;;;;;;6.28;100.00;99143.09;5014775;28;20089;-58
2021/11/04 05:42:49;;;;;;;66.68;40.55;;;;;;;6.68;100.00;99133.63;5017345;28;20884;-58
2021/11/04 05:45:15;;;;;;;70.13;40.20;;;;;;;6.67;100.00;99122.59;5014528;28;20045;-59
2021/11/04 05:47:41;;;;;;;73.75;42.17;;;;;;;6.63;100.00;99126.78;5015543;28;20037;-58
2021/11/04 05:50:07;;;;;;;78.47;44.38;;;;;;;6.31;100.00;99131.31;5015023;28;20142;-57
2021/11/04 05:52:33;;;;;;;67.38;40.55;;;;;;;6.60;100.00;99128.41;5013978;28;20033;-60
2021/11/04 05:54:59;;;;;;;69.38;40.75;;;;;;;6.58;100.00;99122.44;5015599;28;20486;-60
2021/11/04 05:57:25;;;;;;;73.00;42.83;;;;;;;6.62;100.00;99108.97;5017015;28;20109;-58
2021/11/04 05:59:50;;;;;;;66.50;39.53;;;;;;;6.73;100.00;99115.06;5012115;28;20148;-57
2021/11/04 06:02:16;;;;;;;69.93;41.58;;;;;;;6.74;100.00;99111.69;5012252;28;20542;-60
2021/11/04 06:04:45;;;;;;;75.65;44.75;;;;;;;6.34;100.00;99103.41;5015797;28;20823;-56
2021/11/04 06:07:12;;;;;;;70.05;42.13;;;;;;;6.71;100.00;99103.16;5014035;28;20033;-57
2021/11/04 06:09:38;;;;;;;71.40;42.28;;;;;;;6.93;100.00;99100.09;5014429;28;20037;-58
2021/11/04 06:12:04;;;;;;;72.63;44.00;;;;;;;6.76;100.00;99097.31;5018317;28;20038;-59
2021/11/04 06:14:30;;;;;;;71.53;42.88;;;;;;;6.43;100.00;99091.69;5015887;28;20041;-60
2021/11/04 06:16:55;;;;;;;68.38;40.72;;;;;;;7.04;100.00;99082.44;5021710;28;20045;-56
2021/11/04 06:19:22;;;;;;;75.45;44.08;;;;;;;6.81;100.00;99088.06;5018757;28;20037;-60
2021/11/04 06:21:48;;;;;;;73.35;43.53;;;;;;;6.48;100.00;99090.94;5019393;28;20029;-58
2021/11/04 06:24:13;;;;;;;74.53;43.92;;;;;;;6.47;100.00;99093.44;5017963;28;20034;-58
2021/11/04 06:26:39;;;;;;;73.25;42.20;;;;;;;6.59;100.00;99080.94;5018498;28;20042;-59
2021/11/04 06:29:05;;;;;;;74.03;44.33;;;;;;;6.77;100.00;99086.28;5017147;28;20084;-58
2021/11/04 06:31:31;;;;;;;71.50;43.38;;;;;;;7.14;100.00;99082.59;5016028;28;20418;-55
2021/11/04 06:33:57;;;;;;;73.55;43.30;;;;;;;6.98;100.00;99087.44;5016036;28;20129;-58
2021/11/04 06:36:23;;;;;;;76.68;42.92;;;;;;;6.89;100.00;99078.84;5019070;28;20673;-56
2021/11/04 06:38:50;;;;;;;73.30;42.38;;;;;;;7.04;100.00;99072.28;5020281;28;20509;-58
2021/11/04 06:41:15;;;;;;;68.32;39.67;;;;;;;6.83;100.00;99081.28;5017321;28;20406;-58
2021/11/04 06:43:43;;;;;;;68.88;42.97;;;;;;;7.07;100.00;99072.28;5018454;28;20060;-57
2021/11/04 06:46:10;;;;;;;74.53;43.05;;;;;;;6.83;100.00;99082.97;5018713;28;20061;-57
2021/11/04 06:48:51;;;;;;;68.05;43.67;;;;;;;6.66;100.00;99069.19;5018853;28;20037;-60
2021/11/04 06:51:23;;;;;;;70.13;42.60;;;;;;;6.64;100.00;99072.53;5020790;28;20083;-55
2021/11/04 06:53:54;;;;;;;68.60;41.40;;;;;;;6.92;100.00;99065.31;5015753;28;20049;-56
2021/11/04 06:56:20;;;;;;;72.75;42.78;;;;;;;6.81;100.00;99064.31;5019249;28;20121;-56
2021/11/04 06:58:48;;;;;;;73.60;43.88;;;;;;;6.61;100.00;99071.66;5016886;28;20064;-59
2021/11/04 07:01:16;;;;;;;77.80;42.58;;;;;;;6.75;100.00;99067.63;5020063;28;20129;-56
2021/11/04 07:04:02;;;;;;;71.43;42.67;;;;;;;6.61;100.00;99069.09;5018596;28;20034;-59
2021/11/04 07:06:30;;;;;;;69.15;42.78;;;;;;;7.01;100.00;99054.41;5017000;28;20406;-55
2021/11/04 07:09:02;;;;;;;70.05;40.90;;;;;;;7.24;100.00;99063.19;5017567;28;20046;-56
2021/11/04 07:11:33;;;;;;;69.65;42.08;;;;;;;7.00;100.00;99050.16;5020243;28;20044;-57
2021/11/04 07:14:00;;;;;;;72.25;42.10;;;;;;;7.06;100.00;99045.13;5018773;28;20069;-57
2021/11/04 07:16:26;;;;;;;73.43;44.33;;;;;;;6.68;100.00;99042.06;5020074;28;20057;-57
2021/11/04 07:18:54;;;;;;;78.22;43.75;;;;;;;6.30;100.00;99038.09;5032712;28;20064;-57
2021/11/04 07:21:31;;;;;;;75.45;42.60;;;;;;;6.60;100.00;99032.63;5019947;28;20026;-53
2021/11/04 07:24:05;;;;;;;74.28;43.60;;;;;;;6.41;100.00;99039.97;5019959;28;20042;-59
2021/11/04 07:26:39;;;;;;;70.82;42.75;;;;;;;6.78;100.00;99026.09;5017906;28;20060;-60
2021/11/04 07:29:07;;;;;;;77.75;43.47;;;;;;;6.65;100.00;99027.59;5016678;28;20050;-57
2021/11/04 07:31:35;;;;;;;75.07;43.53;;;;;;;6.54;100.00;99035.09;5020679;28;20033;-56
2021/11/04 07:34:03;;;;;;;79.85;45.50;;;;;;;6.85;100.00;99025.38;5018714;28;20467;-56
2021/11/04 07:36:32;;;;;;;72.85;44.22;;;;;;;7.09;100.00;99029.91;5022173;28;20029;-57
2021/11/04 07:38:59;;;;;;;70.90;42.10;;;;;;;6.99;100.00;99026.41;5024896;28;20041;-57
2021/11/04 07:41:28;;;;;;;66.50;41.13;;;;;;;6.89;100.00;99027.13;5027016;28;20029;-60
2021/11/04 07:43:56;;;;;;;72.95;44.38;;;;;;;7.00;100.00;99025.56;5023365;28;20038;-56
2021/11/04 07:46:22;;;;;;;73.18;43.30;;;;;;;7.14;100.00;99020.66;5020301;28;20041;-54
2021/11/04 07:48:48;;;;;;;71.75;42.47;;;;;;;6.86;100.00;99011.81;5018441;28;20034;-54
2021/11/04 07:51:13;;;;;;;71.53;41.45;;;;;;;6.96;100.00;99011.09;5020073;28;20133;-58
2021/11/04 07:53:39;;;;;;;71.25;42.10;;;;;;;7.32;100.00;99004.75;5016524;28;20132;-60
2021/11/04 07:56:06;;;;;;;79.03;44.38;;;;;;;6.70;100.00;99002.25;5018347;28;20042;-59
2021/11/04 07:58:32;;;;;;;76.40;44.50;;;;;;;6.67;100.00;98999.66;5020969;28;20423;-57
2021/11/04 08:00:58;;;;;;;95.47;53.28;;;;;;;6.33;100.00;98994.97;5018785;28;20052;-57
2021/11/04 08:03:23;;;;;;;84.63;49.05;;;;;;;6.93;100.00;98997.47;5024541;28;20040;-61
2021/11/04 08:05:49;;;;;;;87.28;50.65;;;;;;;6.67;100.00;98982.72;5022207;28;20037;-57
2021/11/04 08:08:15;;;;;;;81.72;47.20;;;;;;;6.52;100.00;98990.16;5022870;28;20045;-58
2021/11/04 08:10:40;;;;;;;86.85;49.22;;;;;;;6.50;100.00;98985.03;5021980;28;20502;-57
2021/11/04 08:13:07;;;;;;;108.97;64.38;;;;;;;7.07;100.00;98981.56;5021950;28;20095;-58
2021/11/04 08:15:35;;;;;;;92.25;52.97;;;;;;;6.97;100.00;98974.63;5017251;28;20045;-60
2021/11/04 08:18:01;;;;;;;92.57;55.08;;;;;;;6.87;100.00;98972.81;5016982;28;20030;-54
2021/11/04 08:20:27;;;;;;;105.60;66.20;;;;;;;6.49;100.00;98968.06;5018103;28;20888;-57
2021/11/04 08:22:52;;;;;;;102.78;65.47;;;;;;;6.66;100.00;98965.75;5016824;28;20072;-51
2021/11/04 08:25:18;;;;;;;85.10;49.95;;;;;;;6.70;100.00;98962.44;5014749;28;20057;-52
2021/11/04 08:27:44;;;;;;;87.35;50.40;;;;;;;6.73;100.00;98957.38;5013233;28;20706;-57
2021/11/04 08:30:14;;;;;;;74.07;45.22;;;;;;;7.18;100.00;98958.75;5012949;28;20034;-55
2021/11/04 08:32:41;;;;;;;75.47;47.00;;;;;;;7.20;100.00;98957.06;5014625;28;20045;-58
2021/11/04 08:35:07;;;;;;;79.47;46.78;;;;;;;6.81;100.00;98939.66;5010929;28;20034;-56
2021/11/04 08:37:33;;;;;;;82.30;49.20;;;;;;;6.79;100.00;98937.06;5014798;28;20164;-57
2021/11/04 08:39:59;;;;;;;65.13;40.65;;;;;;;7.03;100.00;98936.53;5012560;28;20104;-56
2021/11/04 08:42:24;;;;;;;67.18;40.03;;;;;;;7.08;100.00;98937.44;5015695;28;20494;-53
2021/11/04 08:44:51;;;;;;;68.50;39.92;;;;;;;7.16;100.00;98932.41;5014623;28;20033;-58
2021/11/04 08:47:16;;;;;;;65.20;40.35;;;;;;;7.14;100.00;98918.84;5014568;28;20398;-52
2021/11/04 08:49:42;;;;;;;65.32;40.10;;;;;;;7.21;100.00;98912.09;5016578;28;20051;-56
2021/11/04 08:52:08;;;;;;;64.38;38.35;;;;;;;7.34;100.00;98909.69;5014018;28;20037;-59
2021/11/04 08:54:35;;;;;;;60.33;39.00;;;;;;;6.71;100.00;98903.09;5016330;28;20127;-57
2021/11/04 08:57:01;;;;;;;63.72;39.25;;;;;;;7.06;100.00;98893.28;5016692;28;20045;-51
2021/11/04 08:59:27;;;;;;;64.85;39.00;;;;;;;7.48;100.00;98902.19;5013855;28;20038;-54
2021/11/04 09:01:54;;;;;;;60.17;39.38;;;;;;;7.31;100.00;98893.56;5015360;28;20037;-52
2021/11/04 09:04:20;;;;;;;61.60;38.75;;;;;;;7.20;100.00;98896.00;5014636;28;20045;-57
2021/11/04 09:06:50;;;;;;;62.28;37.70;;;;;;;6.89;100.00;98892.28;5014823;28;20045;-52
2021/11/04 09:09:16;;;;;;;59.42;37.65;;;;;;;7.12;100.00;98888.28;5016235;28;20037;-55
2021/11/04 09:11:42;;;;;;;66.00;42.88;;;;;;;6.60;100.00;98887.69;5012934;28;20038;-52
2021/11/04 09:14:07;;;;;;;60.10;38.67;;;;;;;6.84;100.00;98873.53;5015885;28;20115;-59
2021/11/04 09:16:33;;;;;;;61.20;39.28;;;;;;;6.85;100.00;98865.94;5013248;28;20129;-57
2021/11/04 09:18:58;;;;;;;61.70;39.20;;;;;;;6.80;100.00;98862.50;5013653;28;20040;-55
2021/11/04 09:21:25;;;;;;;64.88;40.10;;;;;;;6.80;100.00;98856.56;5017506;28;20034;-55
2021/11/04 09:23:50;;;;;;;56.95;37.00;;;;;;;6.86;100.00;98849.00;5023436;28;20033;-53
2021/11/04 09:26:17;;;;;;;57.90;36.70;;;;;;;6.99;100.00;98855.06;5023788;28;20060;-53
2021/11/04 09:28:42;;;;;;;53.53;34.97;;;;;;;7.07;100.00;98853.44;5013069;28;20038;-54
2021/11/04 09:31:10;;;;;;;60.17;35.80;;;;;;;6.92;100.00;98843.09;5015924;28;20041;-56
2021/11/04 09:33:42;;;;;;;54.47;34.55;;;;;;;6.96;100.00;98842.31;5015412;28;20039;-57
2021/11/04 09:36:08;;;;;;;55.25;32.92;;;;;;;7.34;100.00;98840.97;5016950;28;20487;-56
2021/11/04 09:38:34;;;;;;;51.60;32.10;;;;;;;7.26;100.00;98834.97;5020693;28;20026;-51
2021/11/04 09:41:00;;;;;;;46.08;30.88;;;;;;;7.12;100.00;98824.66;5022002;28;20417;-54
2021/11/04 09:43:26;;;;;;;46.08;31.40;;;;;;;7.07;100.00;98818.69;5018426;28;20506;-58
2021/11/04 09:45:52;;;;;;;44.85;30.40;;;;;;;7.15;100.00;98818.72;5022456;28;20040;-56
2021/11/04 09:48:17;;;;;;;43.20;28.67;;;;;;;7.36;100.00;98808.75;5020889;28;20034;-57
2021/11/04 09:50:44;;;;;;;40.60;28.10;;;;;;;7.14;100.00;98799.22;5023668;28;20037;-54
2021/11/04 09:53:10;;;;;;;40.63;27.73;;;;;;;6.79;100.00;98793.78;5023433;28;20049;-62
2021/11/04 09:55:36;;;;;;;38.30;25.70;;;;;;;7.35;100.00;98789.22;5021655;28;20064;-57
2021/11/04 09:58:02;;;;;;;32.90;24.55;;;;;;;7.12;100.00;98790.75;5024592;28;20532;-56
2021/11/04 10:00:40;;;;;;;34.63;24.52;;;;;;;7.07;100.00;98772.88;5021909;28;20044;-58
2021/11/04 10:03:09;;;;;;;35.47;23.13;;;;;;;6.98;100.00;98770.25;5019624;28;20041;-59
2021/11/04 10:05:45;;;;;;;30.60;21.17;;;;;;;7.41;100.00;98755.31;5023843;28;20588;-56
2021/11/04 10:08:13;;;;;;;32.13;21.15;;;;;;;7.29;100.00;98753.53;5026017;28;20038;-55
2021/11/04 10:10:39;;;;;;;27.63;20.05;;;;;;;6.75;100.00;98741.19;5023380;28;20037;-56
2021/11/04 10:13:07;;;;;;;30.25;21.10;;;;;;;6.73;100.00;98738.63;5022940;28;20060;-58
2021/11/04 10:15:36;;;;;;;30.60;19.67;;;;;;;7.07;100.00;98737.25;5024383;28;20029;-57
2021/11/04 10:18:14;;;;;;;28.50;19.77;;;;;;;6.89;100.00;98730.31;5024351;28;20037;-56
2021/11/04 10:20:39;;;;;;;28.20;19.70;;;;;;;6.95;100.00;98729.50;5022415;28;20046;-53
2021/11/04 10:23:08;;;;;;;28.50;19.63;;;;;;;6.77;100.00;98722.56;5023209;28;20216;-53
2021/11/04 10:25:34;;;;;;;26.50;19.73;;;;;;;7.07;100.00;98716.91;5024278;28;20524;-56
2021/11/04 10:28:00;;;;;;;26.60;18.33;;;;;;;7.00;100.00;98716.81;5017384;28;20041;-54
2021/11/04 10:30:43;;;;;;;24.55;18.20;;;;;;;7.15;100.00;98715.25;5020936;28;20040;-57
2021/11/04 10:33:20;;;;;;;23.75;17.58;;;;;;;7.26;100.00;98709.41;5023106;28;20120;-57
2021/11/04 10:35:58;;;;;;;28.17;19.17;;;;;;;7.12;100.00;98701.66;5021293;28;20688;-56
2021/11/04 10:38:36;;;;;;;25.55;18.52;;;;;;;7.11;100.00;98693.16;5022260;28;20133;-53
2021/11/04 10:41:26;;;;;;;24.42;17.63;;;;;;;7.12;100.00;98699.97;5024009;28;20030;-57
2021/11/04 10:44:20;;;;;;;23.95;17.40;;;;;;;7.02;100.00;98697.31;5022306;28;20026;-55
2021/11/04 10:46:52;;;;;;;21.13;16.35;;;;;;;6.99;100.00;98689.69;5022462;28;20049;-58
2021/11/04 10:49:19;;;;;;;23.20;16.08;;;;;;;7.04;100.00;98678.69;5020424;28;20124;-54
2021/11/04 10:51:55;;;;;;;18.83;14.80;;;;;;;7.22;100.00;98675.44;5022901;28;20317;-53
2021/11/04 10:54:21;;;;;;;23.38;16.10;;;;;;;7.14;100.00;98672.81;5020270;28;20599;-54
2021/11/04 10:56:51;;;;;;;21.45;15.20;;;;;;;6.94;100.00;98673.53;5022960;28;20068;-59
2021/11/04 10:59:18;;;;;;;19.58;15.70;;;;;;;6.88;100.00;98672.63;5022434;28;20033;-57
2021/11/04 11:01:47;;;;;;;18.75;14.32;;;;;;;7.18;100.00;98672.84;5022007;28;20038;-54
2021/11/04 11:04:21;;;;;;;20.17;14.30;;;;;;;6.86;100.00;98666.69;5022704;28;20091;-56
2021/11/04 11:06:53;;;;;;;18.60;14.10;;;;;;;7.32;100.00;98664.47;5020888;28;20092;-57
2021/11/04 11:09:26;;;;;;;16.73;12.68;;;;;;;7.37;100.00;98662.78;5020613;28;20041;-55
2021/11/04 11:11:58;;;;;;;19.08;13.50;;;;;;;7.40;100.00;98665.34;5021868;28;20064;-55
2021/11/04 11:14:31;;;;;;;15.07;12.07;;;;;;;7.50;100.00;98661.16;5019862;28;20038;-53
2021/11/04 11:17:00;;;;;;;17.23;12.60;;;;;;;7.44;100.00;98650.97;5024200;28;20041;-50
2021/11/04 11:19:32;;;;;;;16.85;12.85;;;;;;;7.06;100.00;98650.72;5024457;28;20049;-55